sensor_id;sensor_type;location;lat;lon;timestamp;P1;durP1;ratioP1;P2;durP2;ratioP2
12623;SDS011;6377;42.836;23.998;2024-02-21T00:00:49;8.47;;;5.50;;
12623;SDS011;6377;42.836;23.998;2024-02-21T00:03:16;10.07;;;5.83;;
12623;SDS011;6377;42.836;23.998;2024-02-21T00:05:43;9.77;;;5.87;;
12623;SDS011;6377;42.836;23.998;2024-02-21T00:08:10;7.20;;;5.33;;
12623;SDS011;6377;42.836;23.998;2024-02-21T00:10:39;8.70;;;6.00;;
12623;SDS011;6377;42.836;23.998;2024-02-21T00:13:06;9.80;;;6.13;;
12623;SDS011;6377;42.836;23.998;2024-02-21T00:15:33;9.50;;;6.57;;
12623;SDS011;6377;42.836;23.998;2024-02-21T00:18:01;14.57;;;9.47;;
12623;SDS011;6377;42.836;23.998;2024-02-21T00:20:28;10.87;;;7.37;;
12623;SDS011;6377;42.836;23.998;2024-02-21T00:22:56;9.90;;;6.43;;
12623;SDS011;6377;42.836;23.998;2024-02-21T00:25:23;7.63;;;6.20;;
12623;SDS011;6377;42.836;23.998;2024-02-21T00:27:51;9.50;;;7.30;;
12623;SDS011;6377;42.836;23.998;2024-02-21T00:30:19;10.03;;;7.33;;
12623;SDS011;6377;42.836;23.998;2024-02-21T00:32:46;10.20;;;7.20;;
12623;SDS011;6377;42.836;23.998;2024-02-21T00:35:13;11.30;;;7.47;;
12623;SDS011;6377;42.836;23.998;2024-02-21T00:37:40;16.03;;;11.00;;
12623;SDS011;6377;42.836;23.998;2024-02-21T00:40:08;11.93;;;8.83;;
12623;SDS011;6377;42.836;23.998;2024-02-21T00:42:35;11.60;;;8.90;;
12623;SDS011;6377;42.836;23.998;2024-02-21T00:45:05;15.90;;;10.60;;
12623;SDS011;6377;42.836;23.998;2024-02-21T00:47:33;11.87;;;8.30;;
12623;SDS011;6377;42.836;23.998;2024-02-21T00:50:00;12.23;;;8.43;;
12623;SDS011;6377;42.836;23.998;2024-02-21T00:52:27;12.20;;;8.27;;
12623;SDS011;6377;42.836;23.998;2024-02-21T00:54:55;10.43;;;7.83;;
12623;SDS011;6377;42.836;23.998;2024-02-21T00:57:22;12.23;;;8.23;;
12623;SDS011;6377;42.836;23.998;2024-02-21T00:59:49;10.93;;;7.70;;
12623;SDS011;6377;42.836;23.998;2024-02-21T01:02:17;11.27;;;7.63;;
12623;SDS011;6377;42.836;23.998;2024-02-21T01:04:45;16.00;;;9.60;;
12623;SDS011;6377;42.836;23.998;2024-02-21T01:07:12;17.40;;;10.90;;
12623;SDS011;6377;42.836;23.998;2024-02-21T01:09:39;16.63;;;10.67;;
12623;SDS011;6377;42.836;23.998;2024-02-21T01:12:06;14.47;;;9.37;;
12623;SDS011;6377;42.836;23.998;2024-02-21T01:14:34;17.50;;;12.07;;
12623;SDS011;6377;42.836;23.998;2024-02-21T01:17:01;18.10;;;11.73;;
12623;SDS011;6377;42.836;23.998;2024-02-21T01:19:29;18.47;;;12.53;;
12623;SDS011;6377;42.836;23.998;2024-02-21T01:21:56;19.87;;;11.87;;
12623;SDS011;6377;42.836;23.998;2024-02-21T01:24:23;16.07;;;10.30;;
12623;SDS011;6377;42.836;23.998;2024-02-21T01:26:50;12.70;;;8.03;;
12623;SDS011;6377;42.836;23.998;2024-02-21T01:29:18;14.43;;;9.03;;
12623;SDS011;6377;42.836;23.998;2024-02-21T01:31:45;18.57;;;10.60;;
12623;SDS011;6377;42.836;23.998;2024-02-21T01:34:12;15.20;;;9.20;;
12623;SDS011;6377;42.836;23.998;2024-02-21T01:36:41;16.30;;;10.00;;
12623;SDS011;6377;42.836;23.998;2024-02-21T01:39:08;12.30;;;8.27;;
12623;SDS011;6377;42.836;23.998;2024-02-21T01:41:35;16.73;;;10.30;;
12623;SDS011;6377;42.836;23.998;2024-02-21T01:44:02;23.90;;;12.97;;
12623;SDS011;6377;42.836;23.998;2024-02-21T01:46:30;19.07;;;11.40;;
12623;SDS011;6377;42.836;23.998;2024-02-21T01:48:58;24.90;;;13.20;;
12623;SDS011;6377;42.836;23.998;2024-02-21T01:51:26;23.07;;;10.63;;
12623;SDS011;6377;42.836;23.998;2024-02-21T01:53:55;16.67;;;8.50;;
12623;SDS011;6377;42.836;23.998;2024-02-21T01:56:24;92.27;;;27.03;;
12623;SDS011;6377;42.836;23.998;2024-02-21T01:58:51;11.93;;;7.10;;
12623;SDS011;6377;42.836;23.998;2024-02-21T02:01:19;15.00;;;8.90;;
12623;SDS011;6377;42.836;23.998;2024-02-21T02:03:46;18.20;;;9.63;;
12623;SDS011;6377;42.836;23.998;2024-02-21T02:06:13;25.73;;;12.37;;
12623;SDS011;6377;42.836;23.998;2024-02-21T02:08:41;16.87;;;9.33;;
12623;SDS011;6377;42.836;23.998;2024-02-21T02:11:10;11.93;;;8.70;;
12623;SDS011;6377;42.836;23.998;2024-02-21T02:13:40;13.87;;;9.27;;
12623;SDS011;6377;42.836;23.998;2024-02-21T02:16:07;18.23;;;9.57;;
12623;SDS011;6377;42.836;23.998;2024-02-21T02:18:34;46.00;;;21.60;;
12623;SDS011;6377;42.836;23.998;2024-02-21T02:21:01;14.63;;;8.97;;
12623;SDS011;6377;42.836;23.998;2024-02-21T02:23:33;11.97;;;8.40;;
12623;SDS011;6377;42.836;23.998;2024-02-21T02:26:00;13.67;;;8.90;;
12623;SDS011;6377;42.836;23.998;2024-02-21T02:28:27;27.53;;;15.53;;
12623;SDS011;6377;42.836;23.998;2024-02-21T02:30:54;20.47;;;12.93;;
12623;SDS011;6377;42.836;23.998;2024-02-21T02:33:22;16.37;;;10.87;;
12623;SDS011;6377;42.836;23.998;2024-02-21T02:35:49;16.73;;;11.33;;
12623;SDS011;6377;42.836;23.998;2024-02-21T02:38:16;20.20;;;12.83;;
12623;SDS011;6377;42.836;23.998;2024-02-21T02:40:44;19.87;;;13.03;;
12623;SDS011;6377;42.836;23.998;2024-02-21T02:43:12;20.87;;;13.30;;
12623;SDS011;6377;42.836;23.998;2024-02-21T02:45:39;17.93;;;11.97;;
12623;SDS011;6377;42.836;23.998;2024-02-21T02:48:06;18.17;;;11.43;;
12623;SDS011;6377;42.836;23.998;2024-02-21T02:50:34;20.70;;;11.50;;
12623;SDS011;6377;42.836;23.998;2024-02-21T02:53:01;11.23;;;8.23;;
12623;SDS011;6377;42.836;23.998;2024-02-21T02:55:28;13.07;;;8.57;;
12623;SDS011;6377;42.836;23.998;2024-02-21T02:57:57;20.47;;;11.00;;
12623;SDS011;6377;42.836;23.998;2024-02-21T03:00:24;17.87;;;11.43;;
12623;SDS011;6377;42.836;23.998;2024-02-21T03:02:51;15.83;;;10.90;;
12623;SDS011;6377;42.836;23.998;2024-02-21T03:05:18;15.87;;;10.63;;
12623;SDS011;6377;42.836;23.998;2024-02-21T03:07:46;16.07;;;10.93;;
12623;SDS011;6377;42.836;23.998;2024-02-21T03:10:15;15.17;;;10.07;;
12623;SDS011;6377;42.836;23.998;2024-02-21T03:12:42;14.00;;;10.40;;
12623;SDS011;6377;42.836;23.998;2024-02-21T03:15:11;13.77;;;9.67;;
12623;SDS011;6377;42.836;23.998;2024-02-21T03:17:39;13.37;;;9.47;;
12623;SDS011;6377;42.836;23.998;2024-02-21T03:20:06;14.37;;;9.60;;
12623;SDS011;6377;42.836;23.998;2024-02-21T03:22:35;16.23;;;9.90;;
12623;SDS011;6377;42.836;23.998;2024-02-21T03:25:02;14.23;;;9.47;;
12623;SDS011;6377;42.836;23.998;2024-02-21T03:27:30;12.47;;;8.87;;
12623;SDS011;6377;42.836;23.998;2024-02-21T03:29:57;13.20;;;8.60;;
12623;SDS011;6377;42.836;23.998;2024-02-21T03:32:26;11.53;;;8.17;;
12623;SDS011;6377;42.836;23.998;2024-02-21T03:34:54;11.53;;;8.53;;
12623;SDS011;6377;42.836;23.998;2024-02-21T03:37:21;15.40;;;9.70;;
12623;SDS011;6377;42.836;23.998;2024-02-21T03:39:48;13.90;;;9.50;;
12623;SDS011;6377;42.836;23.998;2024-02-21T03:42:16;11.57;;;8.53;;
12623;SDS011;6377;42.836;23.998;2024-02-21T03:44:43;16.37;;;9.97;;
12623;SDS011;6377;42.836;23.998;2024-02-21T03:47:10;13.80;;;9.90;;
12623;SDS011;6377;42.836;23.998;2024-02-21T03:49:38;16.40;;;9.57;;
12623;SDS011;6377;42.836;23.998;2024-02-21T03:52:06;46.30;;;17.33;;
12623;SDS011;6377;42.836;23.998;2024-02-21T03:54:33;55.57;;;22.47;;
12623;SDS011;6377;42.836;23.998;2024-02-21T03:57:00;33.90;;;16.57;;
12623;SDS011;6377;42.836;23.998;2024-02-21T03:59:27;22.77;;;12.47;;
12623;SDS011;6377;42.836;23.998;2024-02-21T04:01:54;14.60;;;10.07;;
12623;SDS011;6377;42.836;23.998;2024-02-21T04:04:22;17.30;;;10.93;;
12623;SDS011;6377;42.836;23.998;2024-02-21T04:06:50;17.40;;;11.40;;
12623;SDS011;6377;42.836;23.998;2024-02-21T04:09:18;18.13;;;11.87;;
12623;SDS011;6377;42.836;23.998;2024-02-21T04:11:45;19.10;;;13.13;;
12623;SDS011;6377;42.836;23.998;2024-02-21T04:14:12;18.23;;;12.93;;
12623;SDS011;6377;42.836;23.998;2024-02-21T04:16:39;16.77;;;11.13;;
12623;SDS011;6377;42.836;23.998;2024-02-21T04:19:07;47.93;;;22.43;;
12623;SDS011;6377;42.836;23.998;2024-02-21T04:21:34;35.30;;;17.97;;
12623;SDS011;6377;42.836;23.998;2024-02-21T04:24:03;31.70;;;16.77;;
12623;SDS011;6377;42.836;23.998;2024-02-21T04:26:30;34.37;;;19.13;;
12623;SDS011;6377;42.836;23.998;2024-02-21T04:28:58;25.87;;;15.80;;
12623;SDS011;6377;42.836;23.998;2024-02-21T04:31:25;29.27;;;17.47;;
12623;SDS011;6377;42.836;23.998;2024-02-21T04:33:52;20.53;;;15.23;;
12623;SDS011;6377;42.836;23.998;2024-02-21T04:36:19;15.10;;;11.03;;
12623;SDS011;6377;42.836;23.998;2024-02-21T04:38:46;18.53;;;11.63;;
12623;SDS011;6377;42.836;23.998;2024-02-21T04:41:15;15.40;;;10.70;;
12623;SDS011;6377;42.836;23.998;2024-02-21T04:43:42;14.63;;;10.40;;
12623;SDS011;6377;42.836;23.998;2024-02-21T04:46:09;15.27;;;11.33;;
12623;SDS011;6377;42.836;23.998;2024-02-21T04:48:36;20.13;;;12.70;;
12623;SDS011;6377;42.836;23.998;2024-02-21T04:51:04;17.03;;;11.80;;
12623;SDS011;6377;42.836;23.998;2024-02-21T04:53:31;16.73;;;11.67;;
12623;SDS011;6377;42.836;23.998;2024-02-21T04:55:58;17.30;;;11.77;;
12623;SDS011;6377;42.836;23.998;2024-02-21T04:58:27;17.87;;;11.87;;
12623;SDS011;6377;42.836;23.998;2024-02-21T05:00:54;20.77;;;14.17;;
12623;SDS011;6377;42.836;23.998;2024-02-21T05:03:22;19.77;;;13.53;;
12623;SDS011;6377;42.836;23.998;2024-02-21T05:05:49;23.30;;;14.80;;
12623;SDS011;6377;42.836;23.998;2024-02-21T05:08:16;27.60;;;18.37;;
12623;SDS011;6377;42.836;23.998;2024-02-21T05:10:43;27.63;;;18.43;;
12623;SDS011;6377;42.836;23.998;2024-02-21T05:13:10;49.70;;;31.33;;
12623;SDS011;6377;42.836;23.998;2024-02-21T05:15:39;49.37;;;32.80;;
12623;SDS011;6377;42.836;23.998;2024-02-21T05:18:06;33.90;;;22.87;;
12623;SDS011;6377;42.836;23.998;2024-02-21T05:20:33;52.23;;;31.87;;
12623;SDS011;6377;42.836;23.998;2024-02-21T05:23:00;51.97;;;31.60;;
12623;SDS011;6377;42.836;23.998;2024-02-21T05:25:27;38.23;;;24.53;;
12623;SDS011;6377;42.836;23.998;2024-02-21T05:27:54;55.70;;;30.00;;
12623;SDS011;6377;42.836;23.998;2024-02-21T05:30:26;50.40;;;28.30;;
12623;SDS011;6377;42.836;23.998;2024-02-21T05:32:55;44.77;;;26.60;;
12623;SDS011;6377;42.836;23.998;2024-02-21T05:35:24;36.13;;;23.30;;
12623;SDS011;6377;42.836;23.998;2024-02-21T05:37:52;35.03;;;21.87;;
12623;SDS011;6377;42.836;23.998;2024-02-21T05:40:19;60.67;;;39.13;;
12623;SDS011;6377;42.836;23.998;2024-02-21T05:42:46;44.60;;;27.13;;
12623;SDS011;6377;42.836;23.998;2024-02-21T05:45:13;41.33;;;25.20;;
12623;SDS011;6377;42.836;23.998;2024-02-21T05:47:41;41.97;;;25.87;;
12623;SDS011;6377;42.836;23.998;2024-02-21T05:50:10;61.40;;;36.73;;
12623;SDS011;6377;42.836;23.998;2024-02-21T05:52:37;54.67;;;37.10;;
12623;SDS011;6377;42.836;23.998;2024-02-21T05:55:06;74.37;;;51.47;;
12623;SDS011;6377;42.836;23.998;2024-02-21T05:57:34;66.93;;;45.03;;
12623;SDS011;6377;42.836;23.998;2024-02-21T06:00:02;62.40;;;43.83;;
12623;SDS011;6377;42.836;23.998;2024-02-21T06:02:31;47.57;;;34.17;;
12623;SDS011;6377;42.836;23.998;2024-02-21T06:04:58;43.23;;;29.57;;
12623;SDS011;6377;42.836;23.998;2024-02-21T06:07:27;34.60;;;24.10;;
12623;SDS011;6377;42.836;23.998;2024-02-21T06:09:54;36.13;;;24.60;;
12623;SDS011;6377;42.836;23.998;2024-02-21T06:12:21;28.87;;;19.37;;
12623;SDS011;6377;42.836;23.998;2024-02-21T06:14:48;27.53;;;18.53;;
12623;SDS011;6377;42.836;23.998;2024-02-21T06:17:15;22.17;;;17.03;;
12623;SDS011;6377;42.836;23.998;2024-02-21T06:19:42;25.13;;;17.57;;
12623;SDS011;6377;42.836;23.998;2024-02-21T06:22:11;24.10;;;15.43;;
12623;SDS011;6377;42.836;23.998;2024-02-21T06:24:39;24.27;;;16.53;;
12623;SDS011;6377;42.836;23.998;2024-02-21T06:27:06;28.23;;;19.23;;
12623;SDS011;6377;42.836;23.998;2024-02-21T06:29:34;31.17;;;19.90;;
12623;SDS011;6377;42.836;23.998;2024-02-21T06:32:01;64.87;;;41.10;;
12623;SDS011;6377;42.836;23.998;2024-02-21T06:34:30;39.87;;;28.07;;
12623;SDS011;6377;42.836;23.998;2024-02-21T06:36:58;49.23;;;31.93;;
12623;SDS011;6377;42.836;23.998;2024-02-21T06:39:25;49.90;;;31.93;;
12623;SDS011;6377;42.836;23.998;2024-02-21T06:41:55;63.63;;;39.43;;
12623;SDS011;6377;42.836;23.998;2024-02-21T06:44:22;37.83;;;28.00;;
12623;SDS011;6377;42.836;23.998;2024-02-21T06:46:49;38.80;;;27.60;;
12623;SDS011;6377;42.836;23.998;2024-02-21T06:49:17;37.00;;;25.53;;
12623;SDS011;6377;42.836;23.998;2024-02-21T06:51:44;37.93;;;24.93;;
12623;SDS011;6377;42.836;23.998;2024-02-21T06:54:12;32.60;;;23.33;;
12623;SDS011;6377;42.836;23.998;2024-02-21T06:56:40;38.90;;;26.00;;
12623;SDS011;6377;42.836;23.998;2024-02-21T06:59:08;53.13;;;33.60;;
12623;SDS011;6377;42.836;23.998;2024-02-21T07:01:36;62.27;;;37.80;;
12623;SDS011;6377;42.836;23.998;2024-02-21T07:04:03;81.67;;;46.90;;
12623;SDS011;6377;42.836;23.998;2024-02-21T07:06:30;92.57;;;51.70;;
12623;SDS011;6377;42.836;23.998;2024-02-21T07:08:57;61.07;;;37.07;;
12623;SDS011;6377;42.836;23.998;2024-02-21T07:11:25;66.83;;;41.20;;
12623;SDS011;6377;42.836;23.998;2024-02-21T07:13:52;47.93;;;30.77;;
12623;SDS011;6377;42.836;23.998;2024-02-21T07:16:20;47.37;;;31.13;;
12623;SDS011;6377;42.836;23.998;2024-02-21T07:18:47;50.07;;;31.23;;
12623;SDS011;6377;42.836;23.998;2024-02-21T07:21:14;45.03;;;29.63;;
12623;SDS011;6377;42.836;23.998;2024-02-21T07:23:41;48.30;;;31.20;;
12623;SDS011;6377;42.836;23.998;2024-02-21T07:26:08;51.97;;;33.83;;
12623;SDS011;6377;42.836;23.998;2024-02-21T07:28:36;50.47;;;33.60;;
12623;SDS011;6377;42.836;23.998;2024-02-21T07:31:03;52.07;;;33.30;;
12623;SDS011;6377;42.836;23.998;2024-02-21T07:33:31;45.17;;;29.63;;
12623;SDS011;6377;42.836;23.998;2024-02-21T07:36:00;46.60;;;29.43;;
12623;SDS011;6377;42.836;23.998;2024-02-21T07:38:28;43.47;;;29.17;;
12623;SDS011;6377;42.836;23.998;2024-02-21T07:40:55;44.20;;;28.27;;
12623;SDS011;6377;42.836;23.998;2024-02-21T07:43:22;35.80;;;23.03;;
12623;SDS011;6377;42.836;23.998;2024-02-21T07:45:49;35.77;;;22.77;;
12623;SDS011;6377;42.836;23.998;2024-02-21T07:48:16;35.60;;;22.33;;
12623;SDS011;6377;42.836;23.998;2024-02-21T07:50:45;46.63;;;31.53;;
12623;SDS011;6377;42.836;23.998;2024-02-21T07:53:12;36.70;;;24.83;;
12623;SDS011;6377;42.836;23.998;2024-02-21T07:55:41;39.20;;;26.03;;
12623;SDS011;6377;42.836;23.998;2024-02-21T07:58:08;39.57;;;26.17;;
12623;SDS011;6377;42.836;23.998;2024-02-21T08:00:35;32.70;;;22.67;;
12623;SDS011;6377;42.836;23.998;2024-02-21T08:03:03;33.97;;;22.27;;
12623;SDS011;6377;42.836;23.998;2024-02-21T08:05:30;33.73;;;23.23;;
12623;SDS011;6377;42.836;23.998;2024-02-21T08:07:58;33.50;;;22.97;;
12623;SDS011;6377;42.836;23.998;2024-02-21T08:10:26;31.30;;;21.70;;
12623;SDS011;6377;42.836;23.998;2024-02-21T08:12:53;31.83;;;21.23;;
12623;SDS011;6377;42.836;23.998;2024-02-21T08:15:20;36.20;;;24.30;;
12623;SDS011;6377;42.836;23.998;2024-02-21T08:17:50;44.37;;;27.50;;
12623;SDS011;6377;42.836;23.998;2024-02-21T08:20:17;34.77;;;24.10;;
12623;SDS011;6377;42.836;23.998;2024-02-21T08:22:44;32.13;;;22.80;;
12623;SDS011;6377;42.836;23.998;2024-02-21T08:25:13;33.03;;;22.53;;
12623;SDS011;6377;42.836;23.998;2024-02-21T08:27:40;33.03;;;23.40;;
12623;SDS011;6377;42.836;23.998;2024-02-21T08:30:06;30.87;;;20.40;;
12623;SDS011;6377;42.836;23.998;2024-02-21T08:32:34;25.10;;;18.37;;
12623;SDS011;6377;42.836;23.998;2024-02-21T08:35:01;23.23;;;15.97;;
12623;SDS011;6377;42.836;23.998;2024-02-21T08:37:30;30.17;;;18.97;;
12623;SDS011;6377;42.836;23.998;2024-02-21T08:39:56;21.77;;;14.57;;
12623;SDS011;6377;42.836;23.998;2024-02-21T08:42:24;18.97;;;13.40;;
12623;SDS011;6377;42.836;23.998;2024-02-21T08:44:51;16.83;;;12.20;;
12623;SDS011;6377;42.836;23.998;2024-02-21T08:47:18;16.37;;;11.87;;
12623;SDS011;6377;42.836;23.998;2024-02-21T08:49:45;15.03;;;11.10;;
12623;SDS011;6377;42.836;23.998;2024-02-21T08:52:13;18.37;;;13.10;;
12623;SDS011;6377;42.836;23.998;2024-02-21T08:54:40;25.80;;;16.23;;
12623;SDS011;6377;42.836;23.998;2024-02-21T08:57:08;20.93;;;13.40;;
12623;SDS011;6377;42.836;23.998;2024-02-21T08:59:36;21.03;;;12.57;;
12623;SDS011;6377;42.836;23.998;2024-02-21T09:02:03;14.40;;;10.73;;
12623;SDS011;6377;42.836;23.998;2024-02-21T09:04:32;15.40;;;11.20;;
12623;SDS011;6377;42.836;23.998;2024-02-21T09:06:59;17.10;;;12.00;;
12623;SDS011;6377;42.836;23.998;2024-02-21T09:09:26;12.10;;;9.20;;
12623;SDS011;6377;42.836;23.998;2024-02-21T09:11:54;12.93;;;8.87;;
12623;SDS011;6377;42.836;23.998;2024-02-21T09:14:21;11.73;;;8.70;;
12623;SDS011;6377;42.836;23.998;2024-02-21T09:16:50;12.37;;;9.50;;
12623;SDS011;6377;42.836;23.998;2024-02-21T09:19:17;12.50;;;9.20;;
12623;SDS011;6377;42.836;23.998;2024-02-21T09:21:44;8.27;;;6.30;;
12623;SDS011;6377;42.836;23.998;2024-02-21T09:24:11;8.37;;;5.50;;
12623;SDS011;6377;42.836;23.998;2024-02-21T09:26:38;4.93;;;4.33;;
12623;SDS011;6377;42.836;23.998;2024-02-21T09:29:05;6.53;;;4.83;;
12623;SDS011;6377;42.836;23.998;2024-02-21T09:31:33;7.40;;;4.93;;
12623;SDS011;6377;42.836;23.998;2024-02-21T09:34:01;6.43;;;4.67;;
12623;SDS011;6377;42.836;23.998;2024-02-21T09:36:29;7.30;;;5.30;;
12623;SDS011;6377;42.836;23.998;2024-02-21T09:38:56;5.03;;;4.40;;
12623;SDS011;6377;42.836;23.998;2024-02-21T09:41:25;28.17;;;17.07;;
12623;SDS011;6377;42.836;23.998;2024-02-21T09:43:53;14.23;;;10.20;;
12623;SDS011;6377;42.836;23.998;2024-02-21T09:46:21;5.17;;;3.63;;
12623;SDS011;6377;42.836;23.998;2024-02-21T09:49:00;4.53;;;3.73;;
12623;SDS011;6377;42.836;23.998;2024-02-21T09:51:37;6.63;;;4.40;;
12623;SDS011;6377;42.836;23.998;2024-02-21T09:54:07;4.10;;;3.37;;
12623;SDS011;6377;42.836;23.998;2024-02-21T09:56:34;6.07;;;4.07;;
12623;SDS011;6377;42.836;23.998;2024-02-21T09:59:02;4.37;;;3.80;;
12623;SDS011;6377;42.836;23.998;2024-02-21T10:01:31;4.23;;;3.30;;
12623;SDS011;6377;42.836;23.998;2024-02-21T10:03:58;5.43;;;3.90;;
12623;SDS011;6377;42.836;23.998;2024-02-21T10:06:26;5.77;;;3.97;;
12623;SDS011;6377;42.836;23.998;2024-02-21T10:08:53;5.40;;;4.30;;
12623;SDS011;6377;42.836;23.998;2024-02-21T10:11:23;8.27;;;5.90;;
12623;SDS011;6377;42.836;23.998;2024-02-21T10:13:51;10.17;;;7.53;;
12623;SDS011;6377;42.836;23.998;2024-02-21T10:16:29;5.40;;;4.47;;
12623;SDS011;6377;42.836;23.998;2024-02-21T10:18:56;7.07;;;5.03;;
12623;SDS011;6377;42.836;23.998;2024-02-21T10:21:23;5.43;;;4.10;;
12623;SDS011;6377;42.836;23.998;2024-02-21T10:23:51;4.17;;;3.50;;
12623;SDS011;6377;42.836;23.998;2024-02-21T10:26:19;5.30;;;3.30;;
12623;SDS011;6377;42.836;23.998;2024-02-21T10:28:46;6.00;;;4.63;;
12623;SDS011;6377;42.836;23.998;2024-02-21T10:31:23;5.97;;;4.07;;
12623;SDS011;6377;42.836;23.998;2024-02-21T10:33:54;4.10;;;3.70;;
12623;SDS011;6377;42.836;23.998;2024-02-21T10:36:21;8.93;;;6.80;;
12623;SDS011;6377;42.836;23.998;2024-02-21T10:38:51;7.50;;;5.60;;
12623;SDS011;6377;42.836;23.998;2024-02-21T10:41:19;4.03;;;3.63;;
12623;SDS011;6377;42.836;23.998;2024-02-21T10:43:49;5.17;;;4.67;;
12623;SDS011;6377;42.836;23.998;2024-02-21T10:46:19;3.77;;;3.47;;
12623;SDS011;6377;42.836;23.998;2024-02-21T10:48:47;4.87;;;4.37;;
12623;SDS011;6377;42.836;23.998;2024-02-21T10:51:19;4.93;;;4.00;;
12623;SDS011;6377;42.836;23.998;2024-02-21T10:53:57;5.77;;;4.40;;
12623;SDS011;6377;42.836;23.998;2024-02-21T10:56:34;21.10;;;5.90;;
12623;SDS011;6377;42.836;23.998;2024-02-21T10:59:06;3.93;;;3.17;;
12623;SDS011;6377;42.836;23.998;2024-02-21T11:01:34;5.40;;;4.50;;
12623;SDS011;6377;42.836;23.998;2024-02-21T11:04:02;5.30;;;3.63;;
12623;SDS011;6377;42.836;23.998;2024-02-21T11:06:30;4.63;;;4.00;;
12623;SDS011;6377;42.836;23.998;2024-02-21T11:09:04;5.40;;;3.73;;
12623;SDS011;6377;42.836;23.998;2024-02-21T11:11:35;8.27;;;3.77;;
12623;SDS011;6377;42.836;23.998;2024-02-21T11:14:04;3.77;;;3.33;;
12623;SDS011;6377;42.836;23.998;2024-02-21T11:16:35;10.50;;;4.23;;
12623;SDS011;6377;42.836;23.998;2024-02-21T11:19:04;7.00;;;3.93;;
12623;SDS011;6377;42.836;23.998;2024-02-21T11:21:35;26.67;;;15.13;;
12623;SDS011;6377;42.836;23.998;2024-02-21T11:24:04;10.37;;;7.07;;
12623;SDS011;6377;42.836;23.998;2024-02-21T11:26:31;5.07;;;3.60;;
12623;SDS011;6377;42.836;23.998;2024-02-21T11:28:59;5.77;;;4.07;;
12623;SDS011;6377;42.836;23.998;2024-02-21T11:31:37;10.67;;;4.77;;
12623;SDS011;6377;42.836;23.998;2024-02-21T11:34:08;6.87;;;4.57;;
12623;SDS011;6377;42.836;23.998;2024-02-21T11:36:36;6.00;;;3.83;;
12623;SDS011;6377;42.836;23.998;2024-02-21T11:39:14;8.20;;;5.80;;
12623;SDS011;6377;42.836;23.998;2024-02-21T11:41:46;7.80;;;5.40;;
12623;SDS011;6377;42.836;23.998;2024-02-21T11:44:14;11.23;;;7.87;;
12623;SDS011;6377;42.836;23.998;2024-02-21T11:46:41;6.77;;;5.90;;
12623;SDS011;6377;42.836;23.998;2024-02-21T11:49:09;7.33;;;5.77;;
12623;SDS011;6377;42.836;23.998;2024-02-21T11:51:36;6.60;;;4.90;;
12623;SDS011;6377;42.836;23.998;2024-02-21T11:54:03;7.67;;;6.37;;
12623;SDS011;6377;42.836;23.998;2024-02-21T11:56:34;7.57;;;5.70;;
12623;SDS011;6377;42.836;23.998;2024-02-21T11:59:01;6.67;;;5.37;;
12623;SDS011;6377;42.836;23.998;2024-02-21T12:01:28;5.97;;;4.47;;
12623;SDS011;6377;42.836;23.998;2024-02-21T12:03:55;5.80;;;4.70;;
12623;SDS011;6377;42.836;23.998;2024-02-21T12:06:22;3.40;;;2.60;;
12623;SDS011;6377;42.836;23.998;2024-02-21T12:08:49;79.80;;;43.77;;
12623;SDS011;6377;42.836;23.998;2024-02-21T12:11:19;18.30;;;12.43;;
12623;SDS011;6377;42.836;23.998;2024-02-21T12:13:57;71.20;;;44.43;;
12623;SDS011;6377;42.836;23.998;2024-02-21T12:16:26;12.73;;;9.03;;
12623;SDS011;6377;42.836;23.998;2024-02-21T12:18:55;57.47;;;37.23;;
12623;SDS011;6377;42.836;23.998;2024-02-21T12:21:25;18.20;;;9.77;;
12623;SDS011;6377;42.836;23.998;2024-02-21T12:23:54;9.20;;;6.63;;
12623;SDS011;6377;42.836;23.998;2024-02-21T12:26:21;16.17;;;11.87;;
12623;SDS011;6377;42.836;23.998;2024-02-21T12:28:49;16.40;;;9.70;;
12623;SDS011;6377;42.836;23.998;2024-02-21T12:31:17;10.70;;;7.47;;
12623;SDS011;6377;42.836;23.998;2024-02-21T12:33:44;9.70;;;7.20;;
12623;SDS011;6377;42.836;23.998;2024-02-21T12:36:11;16.30;;;11.10;;
12623;SDS011;6377;42.836;23.998;2024-02-21T12:38:38;21.17;;;10.83;;
12623;SDS011;6377;42.836;23.998;2024-02-21T12:41:05;11.63;;;7.30;;
12623;SDS011;6377;42.836;23.998;2024-02-21T12:43:32;21.83;;;10.27;;
12623;SDS011;6377;42.836;23.998;2024-02-21T12:46:04;10.27;;;5.90;;
12623;SDS011;6377;42.836;23.998;2024-02-21T12:48:32;11.53;;;7.23;;
12623;SDS011;6377;42.836;23.998;2024-02-21T12:50:59;11.27;;;7.03;;
12623;SDS011;6377;42.836;23.998;2024-02-21T12:53:26;13.20;;;8.27;;
12623;SDS011;6377;42.836;23.998;2024-02-21T12:55:53;5.87;;;4.10;;
12623;SDS011;6377;42.836;23.998;2024-02-21T12:58:20;5.17;;;4.33;;
12623;SDS011;6377;42.836;23.998;2024-02-21T13:00:47;10.37;;;8.03;;
12623;SDS011;6377;42.836;23.998;2024-02-21T13:03:16;7.80;;;6.17;;
12623;SDS011;6377;42.836;23.998;2024-02-21T13:05:43;7.07;;;4.83;;
12623;SDS011;6377;42.836;23.998;2024-02-21T13:08:10;6.30;;;4.73;;
12623;SDS011;6377;42.836;23.998;2024-02-21T13:10:37;17.60;;;13.43;;
12623;SDS011;6377;42.836;23.998;2024-02-21T13:13:04;7.40;;;5.63;;
12623;SDS011;6377;42.836;23.998;2024-02-21T13:15:31;4.13;;;3.47;;
12623;SDS011;6377;42.836;23.998;2024-02-21T13:17:59;5.73;;;4.60;;
12623;SDS011;6377;42.836;23.998;2024-02-21T13:20:28;3.83;;;3.20;;
12623;SDS011;6377;42.836;23.998;2024-02-21T13:22:54;7.00;;;5.07;;
12623;SDS011;6377;42.836;23.998;2024-02-21T13:25:22;10.57;;;8.07;;
12623;SDS011;6377;42.836;23.998;2024-02-21T13:27:49;12.97;;;10.97;;
12623;SDS011;6377;42.836;23.998;2024-02-21T13:30:16;5.97;;;5.37;;
12623;SDS011;6377;42.836;23.998;2024-02-21T13:32:43;15.00;;;9.23;;
12623;SDS011;6377;42.836;23.998;2024-02-21T13:35:12;14.43;;;8.50;;
12623;SDS011;6377;42.836;23.998;2024-02-21T13:37:41;8.63;;;5.70;;
12623;SDS011;6377;42.836;23.998;2024-02-21T13:40:08;7.10;;;4.23;;
12623;SDS011;6377;42.836;23.998;2024-02-21T13:42:36;5.27;;;4.17;;
12623;SDS011;6377;42.836;23.998;2024-02-21T13:45:04;11.83;;;5.80;;
12623;SDS011;6377;42.836;23.998;2024-02-21T13:47:32;8.83;;;7.00;;
12623;SDS011;6377;42.836;23.998;2024-02-21T13:49:59;6.10;;;3.80;;
12623;SDS011;6377;42.836;23.998;2024-02-21T13:52:26;4.47;;;3.10;;
12623;SDS011;6377;42.836;23.998;2024-02-21T13:54:55;6.70;;;4.63;;
12623;SDS011;6377;42.836;23.998;2024-02-21T13:57:22;8.53;;;6.57;;
12623;SDS011;6377;42.836;23.998;2024-02-21T13:59:50;8.53;;;5.50;;
12623;SDS011;6377;42.836;23.998;2024-02-21T14:02:17;14.07;;;8.70;;
12623;SDS011;6377;42.836;23.998;2024-02-21T14:04:44;16.93;;;11.80;;
12623;SDS011;6377;42.836;23.998;2024-02-21T14:07:11;9.63;;;6.67;;
12623;SDS011;6377;42.836;23.998;2024-02-21T14:09:38;24.80;;;19.30;;
12623;SDS011;6377;42.836;23.998;2024-02-21T14:12:07;9.70;;;7.57;;
12623;SDS011;6377;42.836;23.998;2024-02-21T14:14:34;33.13;;;18.97;;
12623;SDS011;6377;42.836;23.998;2024-02-21T14:17:02;28.20;;;14.67;;
12623;SDS011;6377;42.836;23.998;2024-02-21T14:19:29;9.20;;;6.23;;
12623;SDS011;6377;42.836;23.998;2024-02-21T14:21:56;9.87;;;5.13;;
12623;SDS011;6377;42.836;23.998;2024-02-21T14:24:24;14.40;;;11.03;;
12623;SDS011;6377;42.836;23.998;2024-02-21T14:26:53;24.57;;;16.03;;
12623;SDS011;6377;42.836;23.998;2024-02-21T14:29:22;12.70;;;9.43;;
12623;SDS011;6377;42.836;23.998;2024-02-21T14:31:49;9.43;;;6.80;;
12623;SDS011;6377;42.836;23.998;2024-02-21T14:34:16;10.63;;;7.53;;